This is the latest recevied weather packets stored in our database for station/object WW3TRG. If no packets are shown the sender has not sent any weather packets the latest 10 day(s).
| Time | Temp. | Humidity | Pressure | Rain* | Wind** | Luminosity | Snow |
|---|---|---|---|---|---|---|---|
| 1777462714 | 11.67° C | 83% | 1014.9 hPa | 0 mm | - | 26 W/m² | - |
| 1777462409 | 11.67° C | 84% | 1014.7 hPa | 0 mm | - | 24 W/m² | - |
| 1777462106 | 11.11° C | 82% | 1015.1 hPa | 0 mm | - | 24 W/m² | - |
| 1777461803 | 11.67° C | 85% | 1015.1 hPa | 0 mm | - | 21 W/m² | - |
| 1777461498 | 11.67° C | 85% | 1014.9 hPa | 0 mm | - | 17 W/m² | - |
| 1777461195 | 11.11° C | 84% | 1014.9 hPa | 0 mm | - | 15 W/m² | - |
| 1777460890 | 11.11° C | 85% | 1014.7 hPa | 0 mm | - | 16 W/m² | - |
| 1777460586 | 11.11° C | 86% | 1014.4 hPa | 0 mm | - | 16 W/m² | - |
| 1777460281 | 10.56° C | 84% | 1014.6 hPa | 0 mm | - | 12 W/m² | - |
| 1777459979 | 11.11° C | 86% | 1014.9 hPa | 0 mm | - | 11 W/m² | - |
| 1777459675 | 10.56° C | 87% | 1014.7 hPa | 0 mm | - | 7 W/m² | - |
| 1777459372 | 11.11° C | 87% | 1014.6 hPa | 0 mm | - | 5 W/m² | - |
| 1777459070 | 11.11° C | 87% | 1014.7 hPa | 0 mm | - | 4 W/m² | - |
| 1777458767 | 10.56° C | 87% | 1014.7 hPa | 0 mm | - | 4 W/m² | - |
| 1777458463 | 10.56° C | 86% | 1014.7 hPa | 0 mm | - | 2 W/m² | - |
| 1777458161 | 10.56° C | 87% | 1014.4 hPa | 0 mm | - | 1 W/m² | - |
| 1777457855 | 11.11° C | 88% | 1014.6 hPa | 0 mm | - | 0 W/m² | - |
| 1777457551 | 10.56° C | 86% | 1014.6 hPa | 0 mm | - | 0 W/m² | - |
| 1777457246 | 10.56° C | 87% | 1014.3 hPa | 0 mm | - | 0 W/m² | - |
| 1777456942 | 10.56° C | 87% | 1014.3 hPa | 0 mm | - | 0 W/m² | - |
| 1777456638 | 10.56° C | 87% | 1014.4 hPa | 0 mm | - | 0 W/m² | - |
| 1777456333 | 10.56° C | 87% | 1014.5 hPa | 0 mm | - | 0 W/m² | - |
| 1777456030 | 10.56° C | 87% | 1014.7 hPa | 0 mm | - | 0 W/m² | - |
| 1777455726 | 10.56° C | 89% | 1014.5 hPa | 0 mm | - | 0 W/m² | - |
| 1777455423 | 10.56° C | 86% | 1014.9 hPa | 0 mm | - | 0 W/m² | - |
* Rain latest hour (hover to see other rain measurements)
** Current wind speed in m/s (hover to see current wind gust speed)